Flight Track Log - Related Links

Times and Time Zones

All times are in EDT time to prevent confusion due to time zone crossing. See the N775NC flight status page for this flight to view local times or setup timezone preferences in your user account.

Time Position Orientation Groundspeed Altitude Reporting Facility
EDT Latitude Longitude Course Direction KTS MPH feet Rate Location/Type
Sun 03:35:18 PM 33.8733 -81.0692 259° West 244 281 3,000  Level Jacksonville Center
Sun 03:36:18 PM 33.8367 -81.1347 236° Southwest 209 241 4,700 1,884 Climbing Jacksonville Center
Sun 03:37:00 PM 33.8140 -81.3046 261° West  Level FlightAware Approximate
Sun 03:37:19 PM 33.8294 -81.2250 265° West 218 251 6,800  Level Jacksonville Center
Sun 03:38:00 PM 33.8023 -81.3984 261° West  Level FlightAware Approximate
Sun 03:38:18 PM 33.8183 -81.3178 262° West 251 289 9,400  Level Jacksonville Center
Sun 03:39:00 PM 33.7876 -81.4915 259° West  Level FlightAware Approximate
Sun 03:39:18 PM 33.8028 -81.4156 259° West 282 325 10,800  Level Jacksonville Center
Sun 03:40:00 PM 33.7720 -81.5845 259° West  Level FlightAware Approximate
Sun 03:41:00 PM 33.7719 -81.5897 258° West 317 365 15,600  Level Atlanta Center
Sun 03:42:00 PM 33.7636 -81.7050 265° West 339 390 17,800 2,000 Climbing Atlanta Center
Sun 03:43:00 PM 33.7597 -81.8225 268° West 354 407 19,600 1,100 Climbing Atlanta Center
Sun 03:44:00 PM 33.7514 -81.9503 266° West 374 430 20,000 200 Climbing Atlanta Center
Sun 03:45:00 PM 33.7222 -82.0806 255° West 387 445 20,000  Level Atlanta Center
Sun 03:46:00 PM 33.6886 -82.2039 252° West 393 452 20,000  Level Atlanta Center
Sun 03:47:00 PM 33.6342 -82.3222 241° Southwest 405 466 20,000  Level Atlanta Center
Sun 03:48:00 PM 33.5833 -82.4281 240° Southwest 382 440 20,000  Level Atlanta Center
Sun 03:49:00 PM 33.5367 -82.5458 245° Southwest 382 440 20,000  Level Atlanta Center
Sun 03:50:00 PM 33.4903 -82.6689 246° West 376 433 20,000  Level Atlanta Center
Sun 03:51:00 PM 33.4619 -82.7689 251° West 348 400 20,000  Level Atlanta Center
Sun 03:52:00 PM 33.4275 -82.8564 245° Southwest 313 360 20,000  Level Atlanta Center
Sun 03:53:00 PM 33.3822 -82.9467 239° Southwest 306 352 20,000  Level Atlanta Center
Sun 03:54:00 PM 33.3414 -83.0367 242° Southwest 306 352 20,000 -650 Level Atlanta Center
Sun 03:55:00 PM 33.3025 -83.1267 243° Southwest 311 358 18,700 -1,500 Descending Atlanta Center
Sun 03:56:00 PM 33.2633 -83.2139 242° Southwest 306 352 17,000 -1,750 Descending Atlanta Center
Sun 03:57:00 PM 33.2222 -83.2939 238° Southwest 292 336 15,200 -1,400 Descending Atlanta Center
Sun 03:58:00 PM 33.1703 -83.3464 220° Southwest 280 322 14,200 -600 Descending Atlanta Center
Sun 03:59:00 PM 33.1058 -83.3989 214° Southwest 289 333 14,000 -100 Descending Atlanta Center
Sun 04:00:00 PM 33.0708 -83.4686 239° Southwest 271 312 14,000  Level Atlanta Center
Sun 04:01:00 PM 33.0794 -83.5653 276° West 263 303 14,000  Level Atlanta Center
Sun 04:02:00 PM 33.1006 -83.6569 285° West 283 326 14,000  Level Atlanta Center
Sun 04:03:00 PM 33.1511 -83.7361 307° West 293 337 14,000  Level Atlanta Center
Sun 04:04:00 PM 33.2200 -83.8178 315° West 307 353 14,000 -650 Level Atlanta Center
Sun 04:05:00 PM 33.2806 -83.8947 313° West 312 359 12,700 -1,000 Descending Atlanta Center
Sun 04:06:00 PM 33.3331 -83.9742 308° West 312 359 12,000 -350 Descending Atlanta Center
Sun 04:07:00 PM 33.3747 -84.0561 301° West 298 343 12,000  Level Atlanta Center
Sun 04:08:00 PM 33.4186 -84.1383 303° West 298 343 12,000  Level Atlanta Center
Sun 04:09:00 PM 33.4747 -84.2156 311° West 303 349 12,000  Level Atlanta Center
Sun 04:10:00 PM 33.5331 -84.2881 314° West 303 349 12,000 -829 Level Atlanta Center
Sun 04:11:03 PM 33.5667 -84.3833 293° West 290 334 10,300 -1,645 Descending Atlanta TRACON
Sun 04:12:04 PM 33.5500 -84.4667 257° West 288 331 8,600 -1,438 Descending Atlanta TRACON
Sun 04:13:04 PM 33.5333 -84.5500 257° West 264 304 7,400 -1,800 Descending Atlanta TRACON
Sun 04:14:04 PM 33.5333 -84.6500 270° West 278 320 5,000 -1,850 Descending Atlanta TRACON
Sun 04:15:04 PM 33.5500 -84.7333 284° West 255 293 3,700 -950 Descending Atlanta TRACON
Sun 04:16:04 PM 33.6000 -84.7167 16° North 240 276 3,100 -350 Descending Atlanta TRACON
Sun 04:17:04 PM 33.6167 -84.6500 73° East 199 229 3,000 -50 Descending Atlanta TRACON
Sun 04:18:04 PM 33.6167 -84.6000 90° East 189 217 3,000 -350 Level Atlanta TRACON
Sun 04:19:04 PM 33.6167 -84.5333 90° East 179 206 2,300 -700 Descending Atlanta TRACON
Sun 04:20:04 PM 33.6167 -84.4833 90° East 141 162 1,600 -700 Descending Atlanta TRACON

Login

Don't have an account? Register now (free) for customized features, flight alerts, and more!